createdAt,value
2022-09-07T00:01:52.311Z,69.18
2022-09-07T00:04:18.838Z,69.35
2022-09-07T00:06:45.369Z,69.67
2022-09-07T00:09:11.910Z,70.15
2022-09-07T00:11:38.478Z,70.13
2022-09-07T00:14:06.031Z,69.87
2022-09-07T00:16:32.663Z,69.93
2022-09-07T00:19:02.245Z,69.88
2022-09-07T00:21:29.417Z,69.96
2022-09-07T00:23:56.106Z,70.01
2022-09-07T00:26:28.163Z,69.89
2022-09-07T00:29:00.478Z,69.74
2022-09-07T00:31:28.719Z,69.97
2022-09-07T00:33:59.200Z,69.74
2022-09-07T00:36:25.991Z,69.22
2022-09-07T00:38:53.039Z,68.42
2022-09-07T00:41:20.917Z,69.15
2022-09-07T00:43:53.197Z,69.21
2022-09-07T00:46:26.012Z,69.33
2022-09-07T00:48:59.933Z,69.53
2022-09-07T00:51:36.955Z,68.38
2022-09-07T00:54:12.510Z,68.37
2022-09-07T00:56:43.942Z,68.22
2022-09-07T00:59:12.551Z,68.42
2022-09-07T01:01:39.362Z,68.48
2022-09-07T01:04:06.901Z,68.72
2022-09-07T01:06:36.298Z,69.08
2022-09-07T01:09:07.933Z,69.34
2022-09-07T01:11:35.291Z,70.08
2022-09-07T01:14:03.784Z,69.95
2022-09-07T01:16:42.604Z,70.35
2022-09-07T01:19:38.373Z,70.23
2022-09-07T01:22:22.840Z,70.19
2022-09-07T01:25:07.835Z,69.88
2022-09-07T01:27:59.256Z,69.65
2022-09-07T01:30:27.114Z,69.39
2022-09-07T01:33:16.998Z,69.47
2022-09-07T01:36:10.330Z,69.24
2022-09-07T01:38:47.788Z,69.05
2022-09-07T01:41:23.379Z,68.26
2022-09-07T01:44:08.755Z,68.08
2022-09-07T01:46:59.938Z,66.97
2022-09-07T01:49:36.915Z,65.94
2022-09-07T01:52:08.995Z,67.10
2022-09-07T01:54:41.890Z,67.31
2022-09-07T01:57:14.632Z,67.42
2022-09-07T01:59:55.311Z,67.11
2022-09-07T02:02:40.927Z,66.20
2022-09-07T02:05:13.211Z,65.01
2022-09-07T02:07:48.305Z,64.69
2022-09-07T02:10:35.079Z,64.09
2022-09-07T02:13:07.077Z,64.01
2022-09-07T02:15:55.038Z,63.72
2022-09-07T02:18:22.794Z,63.61
2022-09-07T02:20:54.272Z,63.59
2022-09-07T02:23:30.454Z,63.45
2022-09-07T02:26:03.428Z,64.05
2022-09-07T02:28:33.823Z,64.03
2022-09-07T02:31:00.622Z,63.95
2022-09-07T02:33:28.307Z,63.75
2022-09-07T02:35:55.667Z,64.37
2022-09-07T02:38:22.654Z,64.23
2022-09-07T02:40:57.309Z,64.92
2022-09-07T02:43:25.447Z,64.44
2022-09-07T02:46:15.000Z,64.74
2022-09-07T02:48:47.502Z,64.89
2022-09-07T02:51:35.893Z,64.75
2022-09-07T02:54:25.350Z,65.03
2022-09-07T02:57:17.235Z,64.94
2022-09-07T03:00:05.955Z,65.23
2022-09-07T03:02:51.248Z,65.20
2022-09-07T03:05:25.871Z,65.22
2022-09-07T03:08:02.375Z,65.39
2022-09-07T03:10:29.945Z,65.46
2022-09-07T03:12:56.878Z,65.41
2022-09-07T03:15:25.936Z,65.87
2022-09-07T03:17:53.351Z,66.11
2022-09-07T03:20:21.626Z,66.44
2022-09-07T03:22:50.704Z,66.68
2022-09-07T03:25:18.475Z,66.87
2022-09-07T03:27:44.992Z,66.62
2022-09-07T03:30:12.828Z,66.95
2022-09-07T03:32:39.646Z,66.66
2022-09-07T03:35:08.410Z,66.90
2022-09-07T03:37:38.666Z,66.92
2022-09-07T03:40:08.364Z,67.27
2022-09-07T03:42:35.891Z,67.00
2022-09-07T03:45:02.868Z,66.85
2022-09-07T03:47:29.444Z,66.95
2022-09-07T03:49:55.969Z,66.91
2022-09-07T03:52:22.576Z,66.54
2022-09-07T03:54:49.155Z,66.84
2022-09-07T03:57:15.733Z,66.91
2022-09-07T03:59:42.257Z,66.85
2022-09-07T04:02:08.816Z,67.16
2022-09-07T04:04:35.373Z,66.98
2022-09-07T04:07:01.911Z,66.71
2022-09-07T04:09:28.411Z,66.67
2022-09-07T04:11:54.976Z,66.71
2022-09-07T04:14:21.666Z,67.09
2022-09-07T04:16:48.778Z,67.23
2022-09-07T04:19:15.341Z,67.80
2022-09-07T04:21:46.697Z,67.95
2022-09-07T04:24:14.391Z,68.19
2022-09-07T04:26:43.243Z,67.79
2022-09-07T04:29:10.924Z,67.98
2022-09-07T04:31:37.867Z,68.05
2022-09-07T04:34:06.185Z,68.35
2022-09-07T04:36:33.088Z,68.34
2022-09-07T04:39:02.438Z,68.36
2022-09-07T04:41:31.179Z,68.39
2022-09-07T04:44:00.798Z,68.56
2022-09-07T04:46:30.341Z,69.25
2022-09-07T04:48:58.995Z,69.16
2022-09-07T04:51:28.224Z,69.52
2022-09-07T04:53:56.595Z,69.45
2022-09-07T04:56:24.128Z,70.29
2022-09-07T04:58:51.262Z,70.17
2022-09-07T05:01:21.132Z,70.00
2022-09-07T05:03:49.537Z,69.43
2022-09-07T05:06:17.955Z,69.58
2022-09-07T05:08:47.542Z,68.97
2022-09-07T05:11:15.128Z,69.41
2022-09-07T05:13:42.312Z,68.87
2022-09-07T05:16:13.314Z,69.01
2022-09-07T05:18:39.994Z,69.02
2022-09-07T05:21:13.535Z,69.23
2022-09-07T05:23:40.300Z,69.11
2022-09-07T05:26:08.142Z,69.14
2022-09-07T05:28:35.678Z,69.25
2022-09-07T05:36:31.506Z,70.21
2022-09-07T05:38:59.191Z,70.43
2022-09-07T05:41:26.891Z,70.68
2022-09-07T05:46:41.258Z,70.65
2022-09-07T05:49:08.105Z,70.36
2022-09-07T05:51:34.652Z,70.52
2022-09-07T05:54:01.145Z,70.81
2022-09-07T05:56:27.627Z,70.64
2022-09-07T05:58:54.143Z,70.84
2022-09-07T06:01:20.745Z,70.79
2022-09-07T06:03:47.293Z,70.50
2022-09-07T06:06:16.281Z,70.16
2022-09-07T06:08:50.974Z,70.43
2022-09-07T06:11:19.833Z,70.46
2022-09-07T06:13:46.408Z,70.38
2022-09-07T06:16:14.846Z,70.07
2022-09-07T06:18:44.015Z,69.86
2022-09-07T06:21:19.062Z,69.59
2022-09-07T06:23:46.680Z,69.46
2022-09-07T06:26:14.411Z,69.50
2022-09-07T06:28:44.764Z,69.38
2022-09-07T06:31:15.749Z,69.43
2022-09-07T06:33:44.672Z,68.86
2022-09-07T06:36:20.193Z,68.63
2022-09-07T06:38:47.951Z,68.88
2022-09-07T06:44:04.197Z,68.79
2022-09-07T06:49:17.377Z,68.53
2022-09-07T06:51:43.859Z,68.00
2022-09-07T06:56:56.856Z,67.77
2022-09-07T06:59:23.363Z,68.15
2022-09-07T07:01:50.064Z,69.10
2022-09-07T07:04:16.598Z,69.58
2022-09-07T07:06:43.113Z,68.80
2022-09-07T07:09:13.412Z,68.81
2022-09-07T07:11:39.944Z,67.89
2022-09-07T07:14:06.526Z,67.66
2022-09-07T07:16:33.084Z,67.18
2022-09-07T07:18:59.661Z,67.80
2022-09-07T07:21:28.897Z,68.39
2022-09-07T07:23:57.993Z,67.75
2022-09-07T07:26:28.135Z,67.63
2022-09-07T07:31:26.226Z,66.90
2022-09-07T07:33:53.650Z,66.36
2022-09-07T07:36:25.878Z,65.33
2022-09-07T07:44:16.139Z,65.87
2022-09-07T07:46:43.043Z,65.48
2022-09-07T07:49:09.659Z,64.39
2022-09-07T07:54:22.931Z,62.52
2022-09-07T07:56:49.403Z,62.30
2022-09-07T07:59:16.126Z,61.91
2022-09-07T08:01:43.783Z,61.86
2022-09-07T08:04:10.497Z,62.15
2022-09-07T08:06:37.774Z,62.00
2022-09-07T08:09:04.241Z,61.22
2022-09-07T08:11:31.618Z,61.46
2022-09-07T08:14:00.257Z,61.21
2022-09-07T08:16:26.831Z,60.99
2022-09-07T08:18:53.712Z,60.68
2022-09-07T08:21:20.228Z,61.24
2022-09-07T08:23:46.735Z,61.08
2022-09-07T08:26:13.211Z,60.95
2022-09-07T08:28:41.929Z,61.36
2022-09-07T08:31:10.970Z,61.14
2022-09-07T08:33:38.551Z,61.02
2022-09-07T08:36:08.562Z,60.58
2022-09-07T08:38:36.500Z,60.44
2022-09-07T08:41:23.366Z,61.21
2022-09-07T08:43:57.108Z,61.42
2022-09-07T08:46:33.127Z,61.25
2022-09-07T08:49:01.730Z,61.24
2022-09-07T08:51:42.050Z,61.32
2022-09-07T08:54:12.762Z,60.36
2022-09-07T08:57:20.493Z,60.27
2022-09-07T08:59:56.337Z,60.11
2022-09-07T09:02:30.105Z,60.13
2022-09-07T09:07:51.241Z,58.02
2022-09-07T09:10:47.919Z,58.70
2022-09-07T09:13:19.208Z,59.33
2022-09-07T09:15:53.108Z,59.29
2022-09-07T09:18:32.892Z,58.83
2022-09-07T09:21:00.423Z,59.04
2022-09-07T09:23:33.832Z,57.33
2022-09-07T09:26:07.261Z,57.47
2022-09-07T09:28:33.980Z,57.60
2022-09-07T09:31:00.749Z,58.35
2022-09-07T09:33:28.939Z,56.63
2022-09-07T09:36:01.179Z,57.35
2022-09-07T09:38:29.496Z,56.13
2022-09-07T09:40:58.306Z,56.64
2022-09-07T09:43:28.118Z,56.05
2022-09-07T09:46:12.668Z,56.20
2022-09-07T09:48:41.564Z,56.01
2022-09-07T09:54:05.994Z,55.27
2022-09-07T09:56:42.563Z,54.48
2022-09-07T10:05:30.564Z,51.86
2022-09-07T10:07:57.725Z,51.17
2022-09-07T10:10:26.424Z,49.79
2022-09-07T10:12:54.593Z,50.53
2022-09-07T10:15:40.622Z,48.77
2022-09-07T10:18:21.265Z,48.84
2022-09-07T10:20:47.871Z,48.70
2022-09-07T10:23:27.480Z,48.38
2022-09-07T10:25:53.988Z,47.84
2022-09-07T10:28:24.819Z,48.28
2022-09-07T10:30:57.718Z,46.82
2022-09-07T10:34:25.855Z,45.63
2022-09-07T10:36:57.515Z,46.37
2022-09-07T10:39:39.586Z,46.86
2022-09-07T10:42:09.012Z,43.15
2022-09-07T10:44:57.864Z,42.80
2022-09-07T10:47:37.315Z,42.40
2022-09-07T10:50:27.167Z,42.05
2022-09-07T10:53:39.607Z,42.11
2022-09-07T10:56:21.426Z,42.40
2022-09-07T10:59:01.793Z,43.21
2022-09-07T11:01:47.670Z,42.86
2022-09-07T11:04:16.899Z,41.32
2022-09-07T11:06:55.054Z,40.99
2022-09-07T11:09:48.453Z,41.05
2022-09-07T11:12:21.313Z,41.91
2022-09-07T11:15:06.767Z,41.51
2022-09-07T11:17:49.338Z,42.83
2022-09-07T11:20:29.152Z,42.47
2022-09-07T11:23:07.071Z,38.07
2022-09-07T11:25:46.708Z,38.92
2022-09-07T11:28:20.900Z,38.16
2022-09-07T11:31:00.264Z,38.69
2022-09-07T11:37:14.982Z,37.26
2022-09-07T11:39:48.185Z,38.10
2022-09-07T11:45:22.025Z,38.31
2022-09-07T11:47:56.227Z,38.64
2022-09-07T11:50:24.051Z,37.01
2022-09-07T11:52:56.289Z,38.31
2022-09-07T11:55:32.863Z,38.20
2022-09-07T11:58:14.264Z,39.18
2022-09-07T12:01:05.901Z,38.96
2022-09-07T12:04:05.494Z,39.02
2022-09-07T12:06:50.938Z,38.58
2022-09-07T12:09:36.511Z,37.33
2022-09-07T12:12:06.641Z,38.15
2022-09-07T12:14:45.071Z,36.72
2022-09-07T12:17:34.138Z,36.81
2022-09-07T12:20:15.763Z,37.14
2022-09-07T12:23:05.435Z,37.05
2022-09-07T12:25:33.939Z,36.65
2022-09-07T12:28:01.750Z,35.49
2022-09-07T12:30:30.140Z,35.04
2022-09-07T12:32:58.399Z,36.03
2022-09-07T12:35:28.380Z,36.74
2022-09-07T12:37:56.471Z,38.12
2022-09-07T12:40:28.893Z,36.67
2022-09-07T12:43:13.629Z,36.53
2022-09-07T12:45:40.114Z,35.56
2022-09-07T12:48:15.632Z,36.75
2022-09-07T12:51:02.829Z,36.52
2022-09-07T12:53:57.697Z,36.80
2022-09-07T12:56:46.628Z,36.66
2022-09-07T12:59:45.656Z,35.86
2022-09-07T13:02:24.202Z,37.95
2022-09-07T13:05:23.008Z,37.56
2022-09-07T13:08:13.416Z,38.19
2022-09-07T13:10:42.430Z,36.79
2022-09-07T13:13:15.160Z,37.28
2022-09-07T13:15:49.370Z,35.73
2022-09-07T13:18:28.363Z,35.71
2022-09-07T13:21:07.076Z,35.66
2022-09-07T13:23:45.835Z,35.46
2022-09-07T13:26:33.282Z,35.54
2022-09-07T13:29:04.778Z,37.14
2022-09-07T13:31:46.504Z,37.38
2022-09-07T13:34:33.635Z,36.44
2022-09-07T13:37:01.930Z,36.15
2022-09-07T13:39:32.239Z,35.57
2022-09-07T13:42:00.221Z,36.71
2022-09-07T13:44:32.524Z,38.19
2022-09-07T13:47:13.896Z,36.20
2022-09-07T13:49:55.052Z,37.26
2022-09-07T13:52:40.704Z,36.87
2022-09-07T13:55:27.804Z,36.41
2022-09-07T13:58:13.347Z,35.59
2022-09-07T14:00:52.193Z,37.76
2022-09-07T14:03:18.900Z,36.43
2022-09-07T14:05:45.498Z,37.27
2022-09-07T14:08:29.407Z,37.86
2022-09-07T14:10:55.902Z,37.82
2022-09-07T14:13:22.424Z,38.98
2022-09-07T14:15:50.878Z,38.33
2022-09-07T14:18:30.327Z,38.27
2022-09-07T14:20:57.428Z,37.96
2022-09-07T14:23:29.790Z,37.54
2022-09-07T14:26:23.370Z,38.01
2022-09-07T14:28:52.835Z,37.79
2022-09-07T14:31:22.150Z,38.53
2022-09-07T14:33:51.151Z,36.63
2022-09-07T14:36:41.631Z,36.45
2022-09-07T14:39:08.541Z,37.24
2022-09-07T14:41:38.442Z,36.09
2022-09-07T14:44:05.037Z,35.24
2022-09-07T14:46:34.144Z,35.01
2022-09-07T14:49:04.905Z,35.50
2022-09-07T14:51:36.582Z,35.92
2022-09-07T14:54:07.793Z,36.22
2022-09-07T14:56:39.351Z,37.43
2022-09-07T14:59:33.342Z,35.79
2022-09-07T15:02:24.223Z,37.36
2022-09-07T15:05:25.464Z,36.61
2022-09-07T15:08:01.496Z,36.84
2022-09-07T15:13:57.679Z,36.74
2022-09-07T15:16:27.341Z,37.41
2022-09-07T15:19:01.968Z,36.05
2022-09-07T15:21:33.990Z,35.58
2022-09-07T15:24:01.390Z,35.27
2022-09-07T15:29:28.464Z,34.89
2022-09-07T15:32:03.235Z,34.71
2022-09-07T15:34:32.233Z,34.99
2022-09-07T15:37:00.219Z,35.22
2022-09-07T15:39:29.776Z,35.07
2022-09-07T15:41:57.793Z,34.67
2022-09-07T15:44:28.037Z,35.31
2022-09-07T15:49:46.014Z,36.79
2022-09-07T15:52:15.949Z,37.76
2022-09-07T15:54:43.517Z,37.58
2022-09-07T15:59:56.961Z,38.95
2022-09-07T16:05:10.904Z,39.30
2022-09-07T16:10:24.498Z,41.04
2022-09-07T16:15:46.158Z,41.87
2022-09-07T16:18:16.422Z,41.51
2022-09-07T16:20:43.970Z,45.61
2022-09-07T16:23:14.327Z,47.91
2022-09-07T16:25:43.389Z,49.57
2022-09-07T16:28:10.712Z,51.92
2022-09-07T16:30:40.779Z,50.01
2022-09-07T16:33:07.546Z,54.59
2022-09-07T16:35:34.288Z,56.48
2022-09-07T16:40:50.126Z,57.30
2022-09-07T16:43:16.838Z,58.50
2022-09-07T16:48:34.729Z,59.49
2022-09-07T16:51:02.955Z,60.23
2022-09-07T16:53:32.041Z,58.94
2022-09-07T16:56:01.878Z,58.51
2022-09-07T16:58:39.508Z,58.19
2022-09-07T17:01:07.630Z,58.43
2022-09-07T17:03:35.815Z,59.45
2022-09-07T17:06:03.708Z,60.22
2022-09-07T17:08:30.319Z,61.01
2022-09-07T17:11:07.835Z,61.82
2022-09-07T17:13:35.944Z,62.50
2022-09-07T17:16:04.387Z,61.34
2022-09-07T17:21:19.742Z,61.08
2022-09-07T17:23:54.434Z,60.78
2022-09-07T17:26:23.681Z,60.83
2022-09-07T17:28:54.757Z,60.45
2022-09-07T17:34:14.505Z,63.39
2022-09-07T17:36:40.991Z,63.59
2022-09-07T17:39:16.864Z,63.30
2022-09-07T17:41:45.152Z,64.25
2022-09-07T17:44:11.951Z,63.45
2022-09-07T17:46:38.437Z,63.99
2022-09-07T17:49:07.086Z,63.97
2022-09-07T17:51:33.674Z,65.36
2022-09-07T17:54:02.864Z,65.97
2022-09-07T17:56:30.155Z,65.29
2022-09-07T18:00:10.444Z,65.36
2022-09-07T18:01:44.935Z,65.51
2022-09-07T18:04:11.606Z,66.06
2022-09-07T18:06:38.193Z,65.58
2022-09-07T18:09:05.317Z,65.57
2022-09-07T18:11:48.936Z,65.77
2022-09-07T18:14:16.215Z,66.24
2022-09-07T18:16:44.978Z,66.40
2022-09-07T18:19:12.381Z,66.13
2022-09-07T18:21:41.901Z,66.82
2022-09-07T18:24:13.648Z,66.56
2022-09-07T18:26:40.900Z,65.84
2022-09-07T18:29:19.239Z,66.86
2022-09-07T18:31:54.548Z,67.25
2022-09-07T18:34:21.064Z,67.72
2022-09-07T18:36:47.900Z,68.16
2022-09-07T18:39:14.449Z,67.73
2022-09-07T18:41:42.004Z,67.81
2022-09-07T18:45:27.337Z,67.67
2022-09-07T18:46:55.039Z,67.78
2022-09-07T18:49:21.638Z,68.22
2022-09-07T18:54:34.558Z,67.36
2022-09-07T18:57:01.026Z,67.62
2022-09-07T18:59:28.075Z,68.04
2022-09-07T19:02:00.073Z,68.03
2022-09-07T19:05:49.723Z,67.92
2022-09-07T19:07:16.138Z,68.12
2022-09-07T19:09:42.663Z,68.18
2022-09-07T19:12:10.008Z,68.22
2022-09-07T19:14:36.644Z,68.20
2022-09-07T19:17:03.210Z,68.24
2022-09-07T19:19:29.760Z,68.42
2022-09-07T19:21:57.787Z,68.35
2022-09-07T19:24:25.688Z,68.62
2022-09-07T19:26:54.757Z,68.76
2022-09-07T19:29:25.178Z,69.20
2022-09-07T19:32:06.929Z,69.13
2022-09-07T19:34:38.812Z,69.43
2022-09-07T19:37:08.888Z,69.30
2022-09-07T19:39:35.527Z,68.88
2022-09-07T19:42:04.024Z,68.96
2022-09-07T19:44:31.020Z,68.70
2022-09-07T19:46:57.821Z,69.01
2022-09-07T19:49:24.411Z,69.57
2022-09-07T19:51:52.036Z,69.86
2022-09-07T19:54:19.150Z,70.12
2022-09-07T19:56:46.044Z,69.49
2022-09-07T19:59:13.201Z,69.12
2022-09-07T20:01:43.720Z,68.66
2022-09-07T20:04:16.003Z,68.82
2022-09-07T20:06:46.834Z,69.84
2022-09-07T20:09:15.920Z,69.62
2022-09-07T20:11:46.340Z,70.00
2022-09-07T20:14:14.012Z,70.25
2022-09-07T20:16:41.665Z,71.27
2022-09-07T20:19:10.992Z,70.22
2022-09-07T20:21:37.503Z,69.71
2022-09-07T20:24:04.368Z,69.90
2022-09-07T20:26:32.281Z,69.17
2022-09-07T20:29:16.795Z,69.57
2022-09-07T20:31:46.870Z,69.74
2022-09-07T20:34:13.888Z,69.83
2022-09-07T20:36:40.570Z,69.91
2022-09-07T20:39:07.346Z,69.52
2022-09-07T20:41:34.266Z,69.89
2022-09-07T20:44:02.917Z,70.25
2022-09-07T20:46:30.477Z,70.24
2022-09-07T20:48:57.205Z,70.51
2022-09-07T20:51:23.810Z,70.28
2022-09-07T20:53:50.782Z,70.70
2022-09-07T20:56:22.642Z,70.78
2022-09-07T20:58:54.270Z,71.45
2022-09-07T21:01:21.415Z,71.06
2022-09-07T21:03:50.514Z,71.46
2022-09-07T21:06:18.369Z,71.35
2022-09-07T21:08:46.762Z,71.49
2022-09-07T21:11:19.337Z,71.28
2022-09-07T21:13:46.776Z,70.72
2022-09-07T21:16:16.235Z,70.08
2022-09-07T21:18:44.306Z,69.87
2022-09-07T21:21:20.013Z,70.07
2022-09-07T21:23:47.757Z,69.21
2022-09-07T21:26:14.478Z,70.10
2022-09-07T21:28:40.944Z,69.57
2022-09-07T21:31:09.080Z,70.07
2022-09-07T21:33:37.665Z,70.01
2022-09-07T21:36:12.616Z,70.37
2022-09-07T21:38:41.028Z,70.22
2022-09-07T21:41:09.775Z,70.97
2022-09-07T21:43:36.739Z,71.67
2022-09-07T21:46:18.199Z,71.38
2022-09-07T21:48:45.904Z,71.91
2022-09-07T21:51:13.675Z,71.01
2022-09-07T21:53:40.850Z,71.19
2022-09-07T21:56:11.618Z,72.13
2022-09-07T21:58:39.782Z,70.91
2022-09-07T22:01:12.225Z,70.60
2022-09-07T22:03:40.355Z,71.35
2022-09-07T22:06:08.146Z,71.18
2022-09-07T22:08:35.823Z,72.19
2022-09-07T22:11:14.239Z,72.25
2022-09-07T22:13:41.235Z,71.88
2022-09-07T22:16:08.461Z,72.37
2022-09-07T22:18:37.123Z,72.45
2022-09-07T22:21:10.252Z,72.54
2022-09-07T22:23:40.188Z,73.02
2022-09-07T22:26:07.935Z,72.14
2022-09-07T22:28:35.540Z,72.36
2022-09-07T22:31:13.865Z,72.61
2022-09-07T22:33:41.285Z,72.12
2022-09-07T22:36:17.108Z,73.34
2022-09-07T22:38:45.496Z,73.50
2022-09-07T22:41:14.365Z,73.80
2022-09-07T22:43:42.731Z,73.45
2022-09-07T22:46:10.865Z,73.63
2022-09-07T22:48:38.667Z,73.94
2022-09-07T22:51:06.218Z,73.90
2022-09-07T22:53:35.311Z,74.36
2022-09-07T22:56:18.531Z,74.00
2022-09-07T22:58:46.945Z,74.88
2022-09-07T23:01:13.704Z,75.33
2022-09-07T23:03:40.359Z,75.47
2022-09-07T23:06:06.992Z,74.86
2022-09-07T23:08:33.674Z,75.71
2022-09-07T23:11:05.187Z,75.91
2022-09-07T23:13:33.284Z,75.82
2022-09-07T23:16:04.501Z,75.94
2022-09-07T23:18:31.528Z,74.80
2022-09-07T23:21:00.621Z,75.21
2022-09-07T23:23:28.632Z,75.04
2022-09-07T23:25:55.131Z,75.09
2022-09-07T23:28:21.572Z,75.00
2022-09-07T23:30:49.721Z,74.79
2022-09-07T23:33:16.531Z,74.49
2022-09-07T23:35:43.062Z,74.91
2022-09-07T23:38:09.633Z,74.88
2022-09-07T23:40:36.120Z,75.46
2022-09-07T23:43:03.178Z,75.67
2022-09-07T23:45:29.939Z,74.77
2022-09-07T23:47:56.414Z,74.68
2022-09-07T23:50:22.925Z,75.15
2022-09-07T23:52:49.357Z,75.11
2022-09-07T23:55:15.906Z,74.96
2022-09-07T23:57:42.334Z,75.09
